Hlavní strana
METAR-TAF:

METAR-TAF

Letiště :

Newark-Heath Airport

Newark, Ohio, Spojené státy americké

zeměpisná šířka: 40-01-22N, zeměpisná délka: 082-27-45W, výška: 269 m

Aktuální stav počasí

Zpráva byla vytvořena před 2 hodinami a 16 minutami, v 21:54 UTC
Severozápadní vítr 7 kt
Teplota 11°C
Vlhkost vzduchu 62%
Tlak 1009 hPa
Viditelnost: 16.1 km
Polojasno ve výšce 3300 ft
Oblačno až skoro zataženo ve výšce 4300 ft
Zataženo ve výšce 7000 ft

METAR: KVTA 212154Z AUTO 32007KT 10SM SCT033 BKN043 OVC070 11/04 A2981 RMK AO2 SLP097 T01110039

Čas: 20:10 (00:10 UTC)


TAF: chybějící

Stav a předpovědi počasí z více než 4 000 letišť (zprávy METAR a TAF).

Červené a žluté tečky na mapě představují dostupné meteorologické stanice.

Když kurzor umístíte na tečku, zobrazí se název stanice.

Pak kliknutím zobrazíte stav a předpověď počasí.

Chcete-li změnit mapu, kliknutím na zelené tlačítko se znaménkem +mapu přiblížíte, kliknutím na zelené tlačítko se znaménkem – mapu oddálíte a kliknutím na zelené šipky přejdete na sousední mapy.


METAR-TAF: